Alifaki, Turkey

10:45 PM +03 on May 24, 2017 (GMT +0300)
CAPUTCU | | Change Station

Elev 23 ft 36.85 °N, 35.19 °E | Updated 8 minutes ago

Clear
Clear
61.9 °F
Feels Like 61.9 °F
N
0.0
Wind Variable Wind from SSW
Gusts 0.0 mph

Today
High -- | Low -- °F
--% Chance of Precip.
Yesterday
High -- | Low -- °F
Precip. -- in
Pressure 30.01 in
Visibility 6.2 miles
Clouds Few 4000 ft
Dew Point 59 °F
Humidity 90%
Rainfall 0.00 in
Snow Depth Not available.
5:26 AM 7:48 PM
Waning Crescent, 2% visible
METAR LTAF 241920Z VRB02KT 9999 FEW040 18/16 Q1016 NOSIG RMK RWY23 VRB02KT
Pressure 30.01 in
Visibility 6.2 miles
Clouds Few 4000 ft
Dew Point 59 °F
Humidity 90%
Rainfall 0.00 in
Snow Depth Not available.
5:26 AM 7:48 PM
Waning Crescent, 2% visible
METAR LTAF 241920Z VRB02KT 9999 FEW040 18/16 Q1016 NOSIG RMK RWY23 VRB02KT

Get Severe Weather Alerts

Thanks for signing up!

Be on the lookout for a verification email in your inbox.

You'll start receiving the daily forecast at 6 AM.

×

10-Day Weather Forecast

×

Almanac

Astronomy

May. 24, 2017 Rise Set
Actual Time
Civil Twilight
Nautical Twilight
Astronomical Twilight
Moon
Length of Visible Light
Length of Day
Tomorrow will be .
, % of the Moon is Illuminated

Today's Extremes

Country Highs Country Lows

Community

WunderPhotos

Category 6

Welcome to Category 6. This is the collective home for Weather Underground's featured writeups by Dr. Jeff Masters (right), Bob Henson (left), Chris Burt, and other regular contributors.

Nearby

Air Quality

  Air Quality AQ Index Pollutant
Not available.

Snow Depth

Station Depth Elevation

Earthquake Activity

City Distance Mag. Time & Date
Minimum magnitude displayed is 2.5.

Coastal Water Temperatures

Place Temperature

Stations

Nearby Weather Stations

Station Location Temp. Windchill Dew Point Humidity Wind Precip. Elev Updated Type